sensor_id;sensor_type;location;lat;lon;timestamp;P1;durP1;ratioP1;P2;durP2;ratioP2
9524;SDS011;15940;48.734;9.112;2022-10-01T00:01:12;5.00;;;4.60;;
9524;SDS011;15940;48.734;9.112;2022-10-01T00:03:41;7.50;;;4.73;;
9524;SDS011;15940;48.734;9.112;2022-10-01T00:06:09;5.83;;;4.90;;
9524;SDS011;15940;48.734;9.112;2022-10-01T00:08:39;5.67;;;4.47;;
9524;SDS011;15940;48.734;9.112;2022-10-01T00:11:09;4.97;;;4.57;;
9524;SDS011;15940;48.734;9.112;2022-10-01T00:13:38;5.73;;;4.90;;
9524;SDS011;15940;48.734;9.112;2022-10-01T00:16:09;4.73;;;4.33;;
9524;SDS011;15940;48.734;9.112;2022-10-01T00:18:39;4.93;;;4.43;;
9524;SDS011;15940;48.734;9.112;2022-10-01T00:21:09;4.50;;;4.10;;
9524;SDS011;15940;48.734;9.112;2022-10-01T00:23:38;4.90;;;4.43;;
9524;SDS011;15940;48.734;9.112;2022-10-01T00:26:07;5.07;;;4.57;;
9524;SDS011;15940;48.734;9.112;2022-10-01T00:28:37;5.37;;;4.53;;
9524;SDS011;15940;48.734;9.112;2022-10-01T00:31:05;7.17;;;4.90;;
9524;SDS011;15940;48.734;9.112;2022-10-01T00:33:35;6.27;;;4.73;;
9524;SDS011;15940;48.734;9.112;2022-10-01T00:36:03;5.30;;;4.80;;
9524;SDS011;15940;48.734;9.112;2022-10-01T00:38:30;4.90;;;4.50;;
9524;SDS011;15940;48.734;9.112;2022-10-01T00:40:59;4.80;;;4.40;;
9524;SDS011;15940;48.734;9.112;2022-10-01T00:43:27;5.10;;;4.70;;
9524;SDS011;15940;48.734;9.112;2022-10-01T00:45:57;5.30;;;4.80;;
9524;SDS011;15940;48.734;9.112;2022-10-01T00:48:30;4.90;;;4.60;;
9524;SDS011;15940;48.734;9.112;2022-10-01T00:51:05;5.07;;;4.40;;
9524;SDS011;15940;48.734;9.112;2022-10-01T00:53:32;5.77;;;4.57;;
9524;SDS011;15940;48.734;9.112;2022-10-01T00:55:59;5.67;;;5.07;;
9524;SDS011;15940;48.734;9.112;2022-10-01T00:58:26;4.27;;;3.90;;
9524;SDS011;15940;48.734;9.112;2022-10-01T01:00:54;4.77;;;4.23;;
9524;SDS011;15940;48.734;9.112;2022-10-01T01:03:22;4.73;;;4.27;;
9524;SDS011;15940;48.734;9.112;2022-10-01T01:05:51;5.60;;;3.90;;
9524;SDS011;15940;48.734;9.112;2022-10-01T01:08:18;5.23;;;4.10;;
9524;SDS011;15940;48.734;9.112;2022-10-01T01:10:47;3.97;;;3.67;;
9524;SDS011;15940;48.734;9.112;2022-10-01T01:13:27;3.20;;;3.00;;
9524;SDS011;15940;48.734;9.112;2022-10-01T01:16:01;3.87;;;3.50;;
9524;SDS011;15940;48.734;9.112;2022-10-01T01:18:35;3.10;;;2.90;;
9524;SDS011;15940;48.734;9.112;2022-10-01T01:21:14;3.40;;;3.13;;
9524;SDS011;15940;48.734;9.112;2022-10-01T01:23:55;3.93;;;3.37;;
9524;SDS011;15940;48.734;9.112;2022-10-01T01:27:02;3.93;;;3.10;;
9524;SDS011;15940;48.734;9.112;2022-10-01T01:29:51;3.73;;;2.93;;
9524;SDS011;15940;48.734;9.112;2022-10-01T01:32:28;3.23;;;3.00;;
9524;SDS011;15940;48.734;9.112;2022-10-01T01:35:05;3.30;;;3.00;;
9524;SDS011;15940;48.734;9.112;2022-10-01T01:37:36;3.40;;;3.10;;
9524;SDS011;15940;48.734;9.112;2022-10-01T01:40:07;3.33;;;3.07;;
9524;SDS011;15940;48.734;9.112;2022-10-01T01:42:40;3.87;;;3.27;;
9524;SDS011;15940;48.734;9.112;2022-10-01T01:45:12;3.13;;;2.90;;
9524;SDS011;15940;48.734;9.112;2022-10-01T01:47:45;3.47;;;3.17;;
9524;SDS011;15940;48.734;9.112;2022-10-01T01:50:13;3.30;;;3.10;;
9524;SDS011;15940;48.734;9.112;2022-10-01T01:52:42;3.60;;;3.33;;
9524;SDS011;15940;48.734;9.112;2022-10-01T01:55:10;3.80;;;3.50;;
9524;SDS011;15940;48.734;9.112;2022-10-01T01:57:38;3.20;;;2.90;;
9524;SDS011;15940;48.734;9.112;2022-10-01T02:00:09;5.13;;;3.80;;
9524;SDS011;15940;48.734;9.112;2022-10-01T02:02:39;4.27;;;3.40;;
9524;SDS011;15940;48.734;9.112;2022-10-01T02:05:12;3.53;;;3.27;;
9524;SDS011;15940;48.734;9.112;2022-10-01T02:13:54;3.93;;;3.40;;
9524;SDS011;15940;48.734;9.112;2022-10-01T02:16:36;3.50;;;3.20;;
9524;SDS011;15940;48.734;9.112;2022-10-01T02:19:16;5.73;;;3.50;;
9524;SDS011;15940;48.734;9.112;2022-10-01T02:21:54;6.53;;;3.57;;
9524;SDS011;15940;48.734;9.112;2022-10-01T02:24:26;3.57;;;3.27;;
9524;SDS011;15940;48.734;9.112;2022-10-01T02:27:05;3.57;;;3.20;;
9524;SDS011;15940;48.734;9.112;2022-10-01T02:29:38;4.87;;;3.40;;
9524;SDS011;15940;48.734;9.112;2022-10-01T02:32:08;5.47;;;3.00;;
9524;SDS011;15940;48.734;9.112;2022-10-01T02:34:37;3.67;;;2.83;;
9524;SDS011;15940;48.734;9.112;2022-10-01T02:37:05;4.60;;;3.00;;
9524;SDS011;15940;48.734;9.112;2022-10-01T02:39:35;3.83;;;3.10;;
9524;SDS011;15940;48.734;9.112;2022-10-01T02:42:06;3.40;;;2.73;;
9524;SDS011;15940;48.734;9.112;2022-10-01T02:44:38;3.83;;;3.43;;
9524;SDS011;15940;48.734;9.112;2022-10-01T02:47:11;2.93;;;2.73;;
9524;SDS011;15940;48.734;9.112;2022-10-01T02:49:43;3.97;;;3.67;;
9524;SDS011;15940;48.734;9.112;2022-10-01T02:52:12;3.27;;;2.87;;
9524;SDS011;15940;48.734;9.112;2022-10-01T02:54:52;4.00;;;2.93;;
9524;SDS011;15940;48.734;9.112;2022-10-01T02:57:24;2.90;;;2.70;;
9524;SDS011;15940;48.734;9.112;2022-10-01T02:59:55;3.20;;;2.90;;
9524;SDS011;15940;48.734;9.112;2022-10-01T03:02:26;2.90;;;2.70;;
9524;SDS011;15940;48.734;9.112;2022-10-01T03:04:57;3.57;;;2.90;;
9524;SDS011;15940;48.734;9.112;2022-10-01T03:07:26;2.73;;;2.53;;
9524;SDS011;15940;48.734;9.112;2022-10-01T03:09:55;4.60;;;2.63;;
9524;SDS011;15940;48.734;9.112;2022-10-01T03:12:23;2.77;;;2.57;;
9524;SDS011;15940;48.734;9.112;2022-10-01T03:14:50;2.90;;;2.67;;
9524;SDS011;15940;48.734;9.112;2022-10-01T03:17:17;3.03;;;2.77;;
9524;SDS011;15940;48.734;9.112;2022-10-01T03:19:46;3.17;;;2.87;;
9524;SDS011;15940;48.734;9.112;2022-10-01T03:22:14;2.80;;;2.60;;
9524;SDS011;15940;48.734;9.112;2022-10-01T03:24:46;2.80;;;2.60;;
9524;SDS011;15940;48.734;9.112;2022-10-01T03:27:13;2.97;;;2.77;;
9524;SDS011;15940;48.734;9.112;2022-10-01T03:29:41;2.87;;;2.63;;
9524;SDS011;15940;48.734;9.112;2022-10-01T03:32:09;2.70;;;2.50;;
9524;SDS011;15940;48.734;9.112;2022-10-01T03:34:36;2.70;;;2.50;;
9524;SDS011;15940;48.734;9.112;2022-10-01T03:37:05;2.47;;;2.30;;
9524;SDS011;15940;48.734;9.112;2022-10-01T03:39:32;2.43;;;2.23;;
9524;SDS011;15940;48.734;9.112;2022-10-01T03:42:00;2.20;;;2.10;;
9524;SDS011;15940;48.734;9.112;2022-10-01T03:44:27;2.00;;;1.90;;
9524;SDS011;15940;48.734;9.112;2022-10-01T03:46:54;2.53;;;2.13;;
9524;SDS011;15940;48.734;9.112;2022-10-01T03:49:21;3.77;;;1.80;;
9524;SDS011;15940;48.734;9.112;2022-10-01T03:51:49;2.63;;;2.20;;
9524;SDS011;15940;48.734;9.112;2022-10-01T03:54:17;2.53;;;2.10;;
9524;SDS011;15940;48.734;9.112;2022-10-01T03:56:44;4.27;;;1.90;;
9524;SDS011;15940;48.734;9.112;2022-10-01T03:59:12;2.40;;;2.20;;
9524;SDS011;15940;48.734;9.112;2022-10-01T04:01:39;2.00;;;1.90;;
9524;SDS011;15940;48.734;9.112;2022-10-01T04:04:07;2.00;;;1.90;;
9524;SDS011;15940;48.734;9.112;2022-10-01T04:06:34;2.90;;;2.20;;
9524;SDS011;15940;48.734;9.112;2022-10-01T04:09:01;2.17;;;2.03;;
9524;SDS011;15940;48.734;9.112;2022-10-01T04:11:30;2.20;;;2.10;;
9524;SDS011;15940;48.734;9.112;2022-10-01T04:13:57;2.30;;;2.20;;
9524;SDS011;15940;48.734;9.112;2022-10-01T04:16:24;2.87;;;2.40;;
9524;SDS011;15940;48.734;9.112;2022-10-01T04:18:52;2.30;;;2.10;;
9524;SDS011;15940;48.734;9.112;2022-10-01T04:21:19;3.30;;;2.37;;
9524;SDS011;15940;48.734;9.112;2022-10-01T04:23:46;3.13;;;2.30;;
9524;SDS011;15940;48.734;9.112;2022-10-01T04:26:14;2.43;;;2.30;;
9524;SDS011;15940;48.734;9.112;2022-10-01T04:28:44;2.50;;;2.30;;
9524;SDS011;15940;48.734;9.112;2022-10-01T04:31:11;2.10;;;2.00;;
9524;SDS011;15940;48.734;9.112;2022-10-01T04:33:51;2.13;;;2.03;;
9524;SDS011;15940;48.734;9.112;2022-10-01T04:36:19;2.20;;;2.10;;
9524;SDS011;15940;48.734;9.112;2022-10-01T04:38:49;2.33;;;2.13;;
9524;SDS011;15940;48.734;9.112;2022-10-01T04:41:17;1.97;;;1.87;;
9524;SDS011;15940;48.734;9.112;2022-10-01T04:43:46;2.37;;;1.67;;
9524;SDS011;15940;48.734;9.112;2022-10-01T04:46:13;2.13;;;1.93;;
9524;SDS011;15940;48.734;9.112;2022-10-01T04:48:40;1.90;;;1.80;;
9524;SDS011;15940;48.734;9.112;2022-10-01T04:51:07;1.90;;;1.80;;
9524;SDS011;15940;48.734;9.112;2022-10-01T04:53:34;2.10;;;2.00;;
9524;SDS011;15940;48.734;9.112;2022-10-01T04:56:01;1.83;;;1.70;;
9524;SDS011;15940;48.734;9.112;2022-10-01T04:58:28;2.00;;;1.90;;
9524;SDS011;15940;48.734;9.112;2022-10-01T05:00:57;2.17;;;1.90;;
9524;SDS011;15940;48.734;9.112;2022-10-01T05:03:24;3.13;;;1.70;;
9524;SDS011;15940;48.734;9.112;2022-10-01T05:05:52;1.70;;;1.60;;
9524;SDS011;15940;48.734;9.112;2022-10-01T05:08:19;1.70;;;1.60;;
9524;SDS011;15940;48.734;9.112;2022-10-01T05:10:46;1.83;;;1.63;;
9524;SDS011;15940;48.734;9.112;2022-10-01T05:13:13;1.70;;;1.60;;
9524;SDS011;15940;48.734;9.112;2022-10-01T05:15:40;1.67;;;1.57;;
9524;SDS011;15940;48.734;9.112;2022-10-01T05:18:09;1.80;;;1.70;;
9524;SDS011;15940;48.734;9.112;2022-10-01T05:20:36;1.53;;;1.43;;
9524;SDS011;15940;48.734;9.112;2022-10-01T05:23:03;1.63;;;1.53;;
9524;SDS011;15940;48.734;9.112;2022-10-01T05:25:30;3.20;;;1.53;;
9524;SDS011;15940;48.734;9.112;2022-10-01T05:28:00;1.63;;;1.50;;
9524;SDS011;15940;48.734;9.112;2022-10-01T05:30:30;2.27;;;1.50;;
9524;SDS011;15940;48.734;9.112;2022-10-01T05:32:58;1.67;;;1.57;;
9524;SDS011;15940;48.734;9.112;2022-10-01T05:35:29;2.43;;;1.50;;
9524;SDS011;15940;48.734;9.112;2022-10-01T05:37:57;1.50;;;1.33;;
9524;SDS011;15940;48.734;9.112;2022-10-01T05:40:26;1.70;;;1.60;;
9524;SDS011;15940;48.734;9.112;2022-10-01T05:42:54;2.23;;;1.50;;
9524;SDS011;15940;48.734;9.112;2022-10-01T05:45:22;1.70;;;1.60;;
9524;SDS011;15940;48.734;9.112;2022-10-01T05:47:56;1.97;;;1.40;;
9524;SDS011;15940;48.734;9.112;2022-10-01T05:50:24;2.27;;;1.50;;
9524;SDS011;15940;48.734;9.112;2022-10-01T05:52:56;1.83;;;1.47;;
9524;SDS011;15940;48.734;9.112;2022-10-01T05:55:24;1.50;;;1.40;;
9524;SDS011;15940;48.734;9.112;2022-10-01T05:57:55;3.03;;;1.50;;
9524;SDS011;15940;48.734;9.112;2022-10-01T06:00:23;1.70;;;1.60;;
9524;SDS011;15940;48.734;9.112;2022-10-01T06:02:52;1.60;;;1.50;;
9524;SDS011;15940;48.734;9.112;2022-10-01T06:05:19;3.57;;;1.73;;
9524;SDS011;15940;48.734;9.112;2022-10-01T06:07:46;1.67;;;1.50;;
9524;SDS011;15940;48.734;9.112;2022-10-01T06:10:15;1.23;;;1.23;;
9524;SDS011;15940;48.734;9.112;2022-10-01T06:12:43;2.80;;;1.50;;
9524;SDS011;15940;48.734;9.112;2022-10-01T06:15:10;1.90;;;1.80;;
9524;SDS011;15940;48.734;9.112;2022-10-01T06:17:38;1.83;;;1.70;;
9524;SDS011;15940;48.734;9.112;2022-10-01T06:20:09;1.83;;;1.67;;
9524;SDS011;15940;48.734;9.112;2022-10-01T06:22:38;3.47;;;1.80;;
9524;SDS011;15940;48.734;9.112;2022-10-01T06:25:07;1.90;;;1.80;;
9524;SDS011;15940;48.734;9.112;2022-10-01T06:27:37;2.00;;;1.63;;
9524;SDS011;15940;48.734;9.112;2022-10-01T06:30:05;1.50;;;1.40;;
9524;SDS011;15940;48.734;9.112;2022-10-01T06:32:33;2.80;;;1.77;;
9524;SDS011;15940;48.734;9.112;2022-10-01T06:35:00;3.10;;;1.43;;
9524;SDS011;15940;48.734;9.112;2022-10-01T06:37:27;2.30;;;1.80;;
9524;SDS011;15940;48.734;9.112;2022-10-01T06:39:54;3.63;;;1.50;;
9524;SDS011;15940;48.734;9.112;2022-10-01T06:42:21;1.70;;;1.60;;
9524;SDS011;15940;48.734;9.112;2022-10-01T06:44:50;1.70;;;1.60;;
9524;SDS011;15940;48.734;9.112;2022-10-01T06:47:17;1.40;;;1.40;;
9524;SDS011;15940;48.734;9.112;2022-10-01T06:49:44;1.57;;;1.47;;
9524;SDS011;15940;48.734;9.112;2022-10-01T06:52:11;3.73;;;1.50;;
9524;SDS011;15940;48.734;9.112;2022-10-01T06:54:55;1.60;;;1.50;;
9524;SDS011;15940;48.734;9.112;2022-10-01T06:57:24;2.03;;;1.77;;
9524;SDS011;15940;48.734;9.112;2022-10-01T06:59:52;1.60;;;1.50;;
9524;SDS011;15940;48.734;9.112;2022-10-01T07:02:20;2.63;;;1.70;;
9524;SDS011;15940;48.734;9.112;2022-10-01T07:04:51;1.90;;;1.43;;
9524;SDS011;15940;48.734;9.112;2022-10-01T07:07:18;1.77;;;1.67;;
9524;SDS011;15940;48.734;9.112;2022-10-01T07:09:45;1.40;;;1.40;;
9524;SDS011;15940;48.734;9.112;2022-10-01T07:12:12;1.70;;;1.60;;
9524;SDS011;15940;48.734;9.112;2022-10-01T07:14:39;1.80;;;1.70;;
9524;SDS011;15940;48.734;9.112;2022-10-01T07:17:08;1.57;;;1.40;;
9524;SDS011;15940;48.734;9.112;2022-10-01T07:19:35;3.20;;;1.67;;
9524;SDS011;15940;48.734;9.112;2022-10-01T07:22:02;1.70;;;1.60;;
9524;SDS011;15940;48.734;9.112;2022-10-01T07:24:29;3.67;;;1.50;;
9524;SDS011;15940;48.734;9.112;2022-10-01T07:26:56;2.83;;;1.67;;
9524;SDS011;15940;48.734;9.112;2022-10-01T07:29:23;1.50;;;1.40;;
9524;SDS011;15940;48.734;9.112;2022-10-01T07:31:50;5.33;;;1.73;;
9524;SDS011;15940;48.734;9.112;2022-10-01T07:34:23;1.40;;;1.40;;
9524;SDS011;15940;48.734;9.112;2022-10-01T07:36:50;3.77;;;1.47;;
9524;SDS011;15940;48.734;9.112;2022-10-01T07:39:18;1.53;;;1.43;;
9524;SDS011;15940;48.734;9.112;2022-10-01T07:41:45;1.50;;;1.40;;
9524;SDS011;15940;48.734;9.112;2022-10-01T07:44:12;2.23;;;1.80;;
9524;SDS011;15940;48.734;9.112;2022-10-01T07:46:39;2.13;;;1.70;;
9524;SDS011;15940;48.734;9.112;2022-10-01T07:49:07;2.07;;;1.70;;
9524;SDS011;15940;48.734;9.112;2022-10-01T07:51:36;2.27;;;1.87;;
9524;SDS011;15940;48.734;9.112;2022-10-01T07:54:03;1.57;;;1.47;;
9524;SDS011;15940;48.734;9.112;2022-10-01T07:56:30;1.80;;;1.70;;
9524;SDS011;15940;48.734;9.112;2022-10-01T07:58:57;2.30;;;1.80;;
9524;SDS011;15940;48.734;9.112;2022-10-01T08:01:24;1.80;;;1.70;;
9524;SDS011;15940;48.734;9.112;2022-10-01T08:03:52;2.10;;;1.63;;
9524;SDS011;15940;48.734;9.112;2022-10-01T08:06:20;1.97;;;1.77;;
9524;SDS011;15940;48.734;9.112;2022-10-01T08:08:50;3.90;;;1.57;;
9524;SDS011;15940;48.734;9.112;2022-10-01T08:11:17;1.77;;;1.63;;
9524;SDS011;15940;48.734;9.112;2022-10-01T08:13:43;1.60;;;1.50;;
9524;SDS011;15940;48.734;9.112;2022-10-01T08:16:11;1.63;;;1.53;;
9524;SDS011;15940;48.734;9.112;2022-10-01T08:18:38;1.60;;;1.50;;
9524;SDS011;15940;48.734;9.112;2022-10-01T08:21:06;1.47;;;1.37;;
9524;SDS011;15940;48.734;9.112;2022-10-01T08:23:34;1.70;;;1.60;;
9524;SDS011;15940;48.734;9.112;2022-10-01T08:26:03;1.80;;;1.70;;
9524;SDS011;15940;48.734;9.112;2022-10-01T08:28:32;1.90;;;1.80;;
9524;SDS011;15940;48.734;9.112;2022-10-01T08:31:02;3.97;;;1.90;;
9524;SDS011;15940;48.734;9.112;2022-10-01T08:33:32;1.83;;;1.73;;
9524;SDS011;15940;48.734;9.112;2022-10-01T08:36:00;1.70;;;1.60;;
9524;SDS011;15940;48.734;9.112;2022-10-01T08:38:27;1.83;;;1.73;;
9524;SDS011;15940;48.734;9.112;2022-10-01T08:40:54;2.30;;;2.10;;
9524;SDS011;15940;48.734;9.112;2022-10-01T08:43:30;2.07;;;1.97;;
9524;SDS011;15940;48.734;9.112;2022-10-01T08:46:00;2.17;;;1.80;;
9524;SDS011;15940;48.734;9.112;2022-10-01T08:48:46;5.77;;;2.23;;
9524;SDS011;15940;48.734;9.112;2022-10-01T08:51:22;3.37;;;1.90;;
9524;SDS011;15940;48.734;9.112;2022-10-01T08:53:57;2.57;;;1.83;;
9524;SDS011;15940;48.734;9.112;2022-10-01T08:56:33;2.20;;;2.10;;
9524;SDS011;15940;48.734;9.112;2022-10-01T08:59:12;2.10;;;1.93;;
9524;SDS011;15940;48.734;9.112;2022-10-01T09:01:53;2.30;;;2.10;;
9524;SDS011;15940;48.734;9.112;2022-10-01T09:04:20;2.40;;;2.20;;
9524;SDS011;15940;48.734;9.112;2022-10-01T09:06:49;2.77;;;2.13;;
9524;SDS011;15940;48.734;9.112;2022-10-01T09:09:27;1.80;;;1.70;;
9524;SDS011;15940;48.734;9.112;2022-10-01T09:12:16;2.60;;;2.10;;
9524;SDS011;15940;48.734;9.112;2022-10-01T09:15:07;2.10;;;1.90;;
9524;SDS011;15940;48.734;9.112;2022-10-01T09:17:52;1.80;;;1.70;;
9524;SDS011;15940;48.734;9.112;2022-10-01T09:20:31;3.10;;;1.60;;
9524;SDS011;15940;48.734;9.112;2022-10-01T09:23:12;1.70;;;1.60;;
9524;SDS011;15940;48.734;9.112;2022-10-01T09:25:49;1.80;;;1.70;;
9524;SDS011;15940;48.734;9.112;2022-10-01T09:28:18;2.20;;;1.97;;
9524;SDS011;15940;48.734;9.112;2022-10-01T09:30:51;1.47;;;1.40;;
9524;SDS011;15940;48.734;9.112;2022-10-01T09:33:22;2.90;;;1.70;;
9524;SDS011;15940;48.734;9.112;2022-10-01T09:35:58;1.70;;;1.60;;
9524;SDS011;15940;48.734;9.112;2022-10-01T09:38:37;3.63;;;1.60;;
9524;SDS011;15940;48.734;9.112;2022-10-01T09:41:07;1.50;;;1.40;;
9524;SDS011;15940;48.734;9.112;2022-10-01T09:43:36;1.40;;;1.30;;
9524;SDS011;15940;48.734;9.112;2022-10-01T09:46:07;1.43;;;1.33;;
9524;SDS011;15940;48.734;9.112;2022-10-01T09:48:42;1.40;;;1.30;;
9524;SDS011;15940;48.734;9.112;2022-10-01T09:51:15;1.40;;;1.30;;
9524;SDS011;15940;48.734;9.112;2022-10-01T09:53:48;1.20;;;1.20;;
9524;SDS011;15940;48.734;9.112;2022-10-01T09:56:27;1.30;;;1.20;;
9524;SDS011;15940;48.734;9.112;2022-10-01T09:59:00;3.03;;;1.10;;
9524;SDS011;15940;48.734;9.112;2022-10-01T10:01:35;1.43;;;1.30;;
9524;SDS011;15940;48.734;9.112;2022-10-01T10:04:09;1.67;;;1.37;;
9524;SDS011;15940;48.734;9.112;2022-10-01T10:06:36;1.30;;;1.20;;
9524;SDS011;15940;48.734;9.112;2022-10-01T10:09:10;1.00;;;1.00;;
9524;SDS011;15940;48.734;9.112;2022-10-01T10:11:42;1.70;;;1.03;;
9524;SDS011;15940;48.734;9.112;2022-10-01T10:14:11;1.80;;;1.03;;
9524;SDS011;15940;48.734;9.112;2022-10-01T10:16:45;1.00;;;1.00;;
9524;SDS011;15940;48.734;9.112;2022-10-01T10:19:14;1.67;;;1.10;;
9524;SDS011;15940;48.734;9.112;2022-10-01T10:21:48;1.20;;;0.80;;
9524;SDS011;15940;48.734;9.112;2022-10-01T10:24:20;1.17;;;1.07;;
9524;SDS011;15940;48.734;9.112;2022-10-01T10:26:52;1.20;;;1.10;;
9524;SDS011;15940;48.734;9.112;2022-10-01T10:29:25;1.30;;;1.17;;
9524;SDS011;15940;48.734;9.112;2022-10-01T10:31:56;2.43;;;1.00;;
9524;SDS011;15940;48.734;9.112;2022-10-01T10:34:27;1.23;;;1.13;;
9524;SDS011;15940;48.734;9.112;2022-10-01T10:36:58;1.10;;;1.10;;
9524;SDS011;15940;48.734;9.112;2022-10-01T10:39:31;1.10;;;1.00;;
9524;SDS011;15940;48.734;9.112;2022-10-01T10:42:03;0.87;;;0.87;;
9524;SDS011;15940;48.734;9.112;2022-10-01T10:44:31;0.90;;;0.90;;
9524;SDS011;15940;48.734;9.112;2022-10-01T10:47:05;0.80;;;0.80;;
9524;SDS011;15940;48.734;9.112;2022-10-01T10:49:37;2.40;;;1.07;;
9524;SDS011;15940;48.734;9.112;2022-10-01T10:52:17;1.00;;;1.00;;
9524;SDS011;15940;48.734;9.112;2022-10-01T10:54:48;2.40;;;1.07;;
9524;SDS011;15940;48.734;9.112;2022-10-01T10:57:18;0.80;;;0.80;;
9524;SDS011;15940;48.734;9.112;2022-10-01T10:59:55;0.80;;;0.80;;
9524;SDS011;15940;48.734;9.112;2022-10-01T11:02:26;1.20;;;1.10;;
9524;SDS011;15940;48.734;9.112;2022-10-01T11:04:56;1.10;;;1.00;;
9524;SDS011;15940;48.734;9.112;2022-10-01T11:07:27;0.70;;;0.70;;
9524;SDS011;15940;48.734;9.112;2022-10-01T11:09:59;0.87;;;0.83;;
9524;SDS011;15940;48.734;9.112;2022-10-01T11:12:44;0.90;;;0.90;;
9524;SDS011;15940;48.734;9.112;2022-10-01T11:15:31;2.10;;;1.00;;
9524;SDS011;15940;48.734;9.112;2022-10-01T11:18:24;2.33;;;0.63;;
9524;SDS011;15940;48.734;9.112;2022-10-01T11:24:29;1.00;;;1.00;;
9524;SDS011;15940;48.734;9.112;2022-10-01T11:27:26;1.10;;;0.93;;
9524;SDS011;15940;48.734;9.112;2022-10-01T11:30:04;1.53;;;1.27;;
9524;SDS011;15940;48.734;9.112;2022-10-01T11:32:52;1.13;;;1.00;;
9524;SDS011;15940;48.734;9.112;2022-10-01T11:35:38;0.70;;;0.70;;
9524;SDS011;15940;48.734;9.112;2022-10-01T11:38:18;1.07;;;0.80;;
9524;SDS011;15940;48.734;9.112;2022-10-01T11:41:02;0.67;;;0.67;;
9524;SDS011;15940;48.734;9.112;2022-10-01T11:43:46;1.67;;;0.60;;
9524;SDS011;15940;48.734;9.112;2022-10-01T11:46:23;0.70;;;0.70;;
9524;SDS011;15940;48.734;9.112;2022-10-01T11:49:01;0.80;;;0.80;;
9524;SDS011;15940;48.734;9.112;2022-10-01T11:51:45;1.77;;;0.90;;
9524;SDS011;15940;48.734;9.112;2022-10-01T11:54:19;0.80;;;0.80;;
9524;SDS011;15940;48.734;9.112;2022-10-01T11:56:52;0.90;;;0.83;;
9524;SDS011;15940;48.734;9.112;2022-10-01T11:59:40;0.87;;;0.87;;
9524;SDS011;15940;48.734;9.112;2022-10-01T12:02:15;0.60;;;0.60;;
9524;SDS011;15940;48.734;9.112;2022-10-01T12:04:51;0.77;;;0.77;;
9524;SDS011;15940;48.734;9.112;2022-10-01T12:07:26;0.87;;;0.87;;
9524;SDS011;15940;48.734;9.112;2022-10-01T12:10:04;1.70;;;0.80;;
9524;SDS011;15940;48.734;9.112;2022-10-01T12:12:47;0.67;;;0.67;;
9524;SDS011;15940;48.734;9.112;2022-10-01T12:15:24;0.70;;;0.70;;
9524;SDS011;15940;48.734;9.112;2022-10-01T12:17:58;2.57;;;0.70;;
9524;SDS011;15940;48.734;9.112;2022-10-01T12:20:31;1.13;;;0.80;;
9524;SDS011;15940;48.734;9.112;2022-10-01T12:23:05;2.10;;;0.87;;
9524;SDS011;15940;48.734;9.112;2022-10-01T12:25:39;0.80;;;0.80;;
9524;SDS011;15940;48.734;9.112;2022-10-01T12:28:15;0.90;;;0.90;;
9524;SDS011;15940;48.734;9.112;2022-10-01T12:30:48;1.60;;;1.10;;
9524;SDS011;15940;48.734;9.112;2022-10-01T12:33:34;0.77;;;0.77;;
9524;SDS011;15940;48.734;9.112;2022-10-01T12:36:33;0.70;;;0.70;;
9524;SDS011;15940;48.734;9.112;2022-10-01T12:39:24;0.97;;;0.97;;
9524;SDS011;15940;48.734;9.112;2022-10-01T12:42:07;2.10;;;0.90;;
9524;SDS011;15940;48.734;9.112;2022-10-01T12:44:55;0.80;;;0.80;;
9524;SDS011;15940;48.734;9.112;2022-10-01T12:47:38;0.87;;;0.87;;
9524;SDS011;15940;48.734;9.112;2022-10-01T12:50:20;1.13;;;1.00;;
9524;SDS011;15940;48.734;9.112;2022-10-01T12:52:59;0.90;;;0.90;;
9524;SDS011;15940;48.734;9.112;2022-10-01T12:55:47;0.80;;;0.80;;
9524;SDS011;15940;48.734;9.112;2022-10-01T12:58:40;0.90;;;0.90;;
9524;SDS011;15940;48.734;9.112;2022-10-01T13:01:27;0.93;;;0.93;;
9524;SDS011;15940;48.734;9.112;2022-10-01T13:07:17;3.30;;;1.30;;
9524;SDS011;15940;48.734;9.112;2022-10-01T13:10:02;1.00;;;1.00;;
9524;SDS011;15940;48.734;9.112;2022-10-01T13:12:52;1.10;;;1.07;;
9524;SDS011;15940;48.734;9.112;2022-10-01T13:15:30;1.00;;;0.97;;
9524;SDS011;15940;48.734;9.112;2022-10-01T13:18:05;1.17;;;1.17;;
9524;SDS011;15940;48.734;9.112;2022-10-01T13:20:47;0.97;;;0.97;;
9524;SDS011;15940;48.734;9.112;2022-10-01T13:23:22;1.00;;;1.00;;
9524;SDS011;15940;48.734;9.112;2022-10-01T13:26:00;1.13;;;1.13;;
9524;SDS011;15940;48.734;9.112;2022-10-01T13:28:39;1.10;;;1.10;;
9524;SDS011;15940;48.734;9.112;2022-10-01T13:31:29;1.13;;;1.03;;
9524;SDS011;15940;48.734;9.112;2022-10-01T13:37:11;0.70;;;0.70;;
9524;SDS011;15940;48.734;9.112;2022-10-01T13:39:40;1.17;;;1.10;;
9524;SDS011;15940;48.734;9.112;2022-10-01T13:42:13;0.90;;;0.90;;
9524;SDS011;15940;48.734;9.112;2022-10-01T13:44:53;0.70;;;0.63;;
9524;SDS011;15940;48.734;9.112;2022-10-01T13:47:23;0.60;;;0.60;;
9524;SDS011;15940;48.734;9.112;2022-10-01T13:49:54;0.70;;;0.70;;
9524;SDS011;15940;48.734;9.112;2022-10-01T13:52:27;1.03;;;0.63;;
9524;SDS011;15940;48.734;9.112;2022-10-01T13:54:56;0.80;;;0.80;;
9524;SDS011;15940;48.734;9.112;2022-10-01T13:57:27;1.57;;;0.70;;
9524;SDS011;15940;48.734;9.112;2022-10-01T14:00:01;0.40;;;0.40;;
9524;SDS011;15940;48.734;9.112;2022-10-01T14:02:56;0.60;;;0.60;;
9524;SDS011;15940;48.734;9.112;2022-10-01T14:05:31;2.47;;;0.90;;
9524;SDS011;15940;48.734;9.112;2022-10-01T14:08:03;4.03;;;0.80;;
9524;SDS011;15940;48.734;9.112;2022-10-01T14:10:41;0.83;;;0.83;;
9524;SDS011;15940;48.734;9.112;2022-10-01T14:13:33;0.60;;;0.60;;
9524;SDS011;15940;48.734;9.112;2022-10-01T14:16:33;0.83;;;0.63;;
9524;SDS011;15940;48.734;9.112;2022-10-01T14:19:02;0.67;;;0.67;;
9524;SDS011;15940;48.734;9.112;2022-10-01T14:21:33;2.17;;;0.70;;
9524;SDS011;15940;48.734;9.112;2022-10-01T14:24:19;0.70;;;0.70;;
9524;SDS011;15940;48.734;9.112;2022-10-01T14:26:58;0.53;;;0.53;;
9524;SDS011;15940;48.734;9.112;2022-10-01T14:29:39;1.77;;;0.80;;
9524;SDS011;15940;48.734;9.112;2022-10-01T14:32:24;0.50;;;0.50;;
9524;SDS011;15940;48.734;9.112;2022-10-01T14:35:07;1.37;;;0.60;;
9524;SDS011;15940;48.734;9.112;2022-10-01T14:37:48;0.70;;;0.70;;
9524;SDS011;15940;48.734;9.112;2022-10-01T14:40:16;0.70;;;0.50;;
9524;SDS011;15940;48.734;9.112;2022-10-01T14:42:55;0.73;;;0.60;;
9524;SDS011;15940;48.734;9.112;2022-10-01T14:45:24;0.57;;;0.57;;
9524;SDS011;15940;48.734;9.112;2022-10-01T14:48:02;0.57;;;0.57;;
9524;SDS011;15940;48.734;9.112;2022-10-01T14:50:31;0.60;;;0.60;;
9524;SDS011;15940;48.734;9.112;2022-10-01T14:53:00;1.17;;;0.70;;
9524;SDS011;15940;48.734;9.112;2022-10-01T14:55:27;0.83;;;0.50;;
9524;SDS011;15940;48.734;9.112;2022-10-01T14:57:56;0.87;;;0.50;;
9524;SDS011;15940;48.734;9.112;2022-10-01T15:00:24;0.50;;;0.50;;
9524;SDS011;15940;48.734;9.112;2022-10-01T15:03:02;1.70;;;0.60;;
9524;SDS011;15940;48.734;9.112;2022-10-01T15:05:36;0.30;;;0.30;;
9524;SDS011;15940;48.734;9.112;2022-10-01T15:08:08;1.10;;;0.70;;
9524;SDS011;15940;48.734;9.112;2022-10-01T15:10:39;0.60;;;0.60;;
9524;SDS011;15940;48.734;9.112;2022-10-01T15:13:14;0.83;;;0.60;;
9524;SDS011;15940;48.734;9.112;2022-10-01T15:15:46;0.53;;;0.50;;
9524;SDS011;15940;48.734;9.112;2022-10-01T15:18:14;0.60;;;0.60;;
9524;SDS011;15940;48.734;9.112;2022-10-01T15:20:49;0.37;;;0.37;;
9524;SDS011;15940;48.734;9.112;2022-10-01T15:23:20;0.70;;;0.70;;
9524;SDS011;15940;48.734;9.112;2022-10-01T15:25:49;0.60;;;0.60;;
9524;SDS011;15940;48.734;9.112;2022-10-01T15:28:23;0.60;;;0.60;;
9524;SDS011;15940;48.734;9.112;2022-10-01T15:30:56;1.43;;;0.60;;
9524;SDS011;15940;48.734;9.112;2022-10-01T15:33:29;1.13;;;0.47;;
9524;SDS011;15940;48.734;9.112;2022-10-01T15:36:00;0.40;;;0.40;;
9524;SDS011;15940;48.734;9.112;2022-10-01T15:38:30;1.17;;;0.80;;
9524;SDS011;15940;48.734;9.112;2022-10-01T15:40:58;0.67;;;0.67;;
9524;SDS011;15940;48.734;9.112;2022-10-01T15:43:32;0.60;;;0.60;;
9524;SDS011;15940;48.734;9.112;2022-10-01T15:46:14;2.87;;;0.80;;
9524;SDS011;15940;48.734;9.112;2022-10-01T15:48:46;0.70;;;0.70;;